createdAt,value
2022-10-02T00:02:28.042Z,1.50
2022-10-02T00:05:08.279Z,1.58
2022-10-02T00:07:58.175Z,1.40
2022-10-02T00:10:33.673Z,1.35
2022-10-02T00:13:11.444Z,1.33
2022-10-02T00:15:42.966Z,1.17
2022-10-02T00:18:32.329Z,1.20
2022-10-02T00:21:26.068Z,1.50
2022-10-02T00:24:03.631Z,1.20
2022-10-02T00:27:03.037Z,1.45
2022-10-02T00:29:51.447Z,1.60
2022-10-02T00:32:38.089Z,1.00
2022-10-02T00:35:34.550Z,1.25
2022-10-02T00:38:12.029Z,1.08
2022-10-02T00:40:57.822Z,1.05
2022-10-02T00:43:35.286Z,1.27
2022-10-02T00:46:12.336Z,1.30
2022-10-02T00:48:48.577Z,1.55
2022-10-02T00:51:21.843Z,1.20
2022-10-02T00:54:28.907Z,1.23
2022-10-02T00:57:16.407Z,1.40
2022-10-02T01:00:05.722Z,1.05
2022-10-02T01:02:41.970Z,1.40
2022-10-02T01:05:10.730Z,1.10
2022-10-02T01:07:45.036Z,1.25
2022-10-02T01:10:14.389Z,1.38
2022-10-02T01:12:45.254Z,1.20
2022-10-02T01:15:19.824Z,1.15
2022-10-02T01:17:50.416Z,1.23
2022-10-02T01:20:30.598Z,1.35
2022-10-02T01:23:18.011Z,1.60
2022-10-02T01:25:48.992Z,1.30
2022-10-02T01:28:17.136Z,1.13
2022-10-02T01:30:53.247Z,1.20
2022-10-02T01:33:23.435Z,1.30
2022-10-02T01:35:51.946Z,1.10
2022-10-02T01:38:21.990Z,1.25
2022-10-02T01:40:50.071Z,1.35
2022-10-02T01:43:32.704Z,1.33
2022-10-02T01:46:45.147Z,1.30
2022-10-02T01:49:37.419Z,1.50
2022-10-02T01:52:23.102Z,1.27
2022-10-02T01:55:09.191Z,1.08
2022-10-02T01:57:54.034Z,1.17
2022-10-02T02:00:25.567Z,1.20
2022-10-02T02:03:12.210Z,1.27
2022-10-02T02:05:47.048Z,1.00
2022-10-02T02:08:38.226Z,1.20
2022-10-02T02:11:16.996Z,1.30
2022-10-02T02:14:06.239Z,1.15
2022-10-02T02:17:05.573Z,1.10
2022-10-02T02:19:42.998Z,1.02
2022-10-02T02:22:18.711Z,1.23
2022-10-02T02:25:20.407Z,1.05
2022-10-02T02:27:54.161Z,1.08
2022-10-02T02:30:23.728Z,1.10
2022-10-02T02:33:02.264Z,1.33
2022-10-02T02:35:38.571Z,0.98
2022-10-02T02:38:14.963Z,0.90
2022-10-02T02:40:45.483Z,1.10
2022-10-02T02:43:29.495Z,1.70
2022-10-02T02:46:22.080Z,0.90
2022-10-02T02:48:58.223Z,1.00
2022-10-02T02:51:35.781Z,1.00
2022-10-02T02:54:26.708Z,1.10
2022-10-02T02:57:04.802Z,1.08
2022-10-02T02:59:36.417Z,1.10
2022-10-02T03:02:03.843Z,1.10
2022-10-02T03:04:33.979Z,1.20
2022-10-02T03:07:08.288Z,1.08
2022-10-02T03:09:39.785Z,1.17
2022-10-02T03:12:31.139Z,1.10
2022-10-02T03:15:33.192Z,0.88
2022-10-02T03:18:28.796Z,0.98
2022-10-02T03:21:11.399Z,1.40
2022-10-02T03:24:01.962Z,1.10
2022-10-02T03:26:53.044Z,1.10
2022-10-02T03:29:32.161Z,1.15
2022-10-02T03:32:01.114Z,0.90
2022-10-02T03:34:41.233Z,1.23
2022-10-02T03:37:09.929Z,0.80
2022-10-02T03:39:43.727Z,0.80
2022-10-02T03:42:18.574Z,0.88
2022-10-02T03:44:50.404Z,0.82
2022-10-02T03:47:23.626Z,0.80
2022-10-02T03:49:51.058Z,1.08
2022-10-02T03:52:22.678Z,0.80
2022-10-02T03:55:02.046Z,1.27
2022-10-02T03:57:31.107Z,1.08
2022-10-02T04:00:08.985Z,1.05
2022-10-02T04:02:53.752Z,0.80
2022-10-02T04:05:36.909Z,1.08
2022-10-02T04:08:21.909Z,1.08
2022-10-02T04:11:00.625Z,0.80
2022-10-02T04:13:55.421Z,1.08
2022-10-02T04:16:31.823Z,1.08
2022-10-02T04:19:27.050Z,0.93
2022-10-02T04:22:00.139Z,0.90
2022-10-02T04:24:29.307Z,1.10
2022-10-02T04:27:14.978Z,1.00
2022-10-02T04:29:55.605Z,0.90
2022-10-02T04:32:34.553Z,1.15
2022-10-02T04:35:17.425Z,0.85
2022-10-02T04:37:59.289Z,0.93
2022-10-02T04:40:51.160Z,0.63
2022-10-02T04:43:34.966Z,0.55
2022-10-02T04:46:20.864Z,0.82
2022-10-02T04:48:49.329Z,0.80
2022-10-02T04:51:28.562Z,1.00
2022-10-02T04:54:05.127Z,1.17
2022-10-02T04:56:54.188Z,0.93
2022-10-02T04:59:41.023Z,1.15
2022-10-02T05:02:20.690Z,1.40
2022-10-02T05:04:52.118Z,1.10
2022-10-02T05:07:42.211Z,1.17
2022-10-02T05:10:52.795Z,1.13
2022-10-02T05:13:38.189Z,1.00
2022-10-02T05:16:36.032Z,0.98
2022-10-02T05:19:21.222Z,1.13
2022-10-02T05:22:00.364Z,0.90
2022-10-02T05:24:46.829Z,2.00
2022-10-02T05:27:24.580Z,1.80
2022-10-02T05:30:17.970Z,1.17
2022-10-02T05:33:11.341Z,1.20
2022-10-02T05:36:11.028Z,1.35
2022-10-02T05:39:16.940Z,1.35
2022-10-02T05:42:29.408Z,1.30
2022-10-02T05:45:21.326Z,1.20
2022-10-02T05:47:53.087Z,1.00
2022-10-02T05:50:24.382Z,1.20
2022-10-02T05:52:59.180Z,1.40
2022-10-02T05:55:35.816Z,1.10
2022-10-02T05:58:34.975Z,1.25
2022-10-02T06:01:23.574Z,1.00
2022-10-02T06:04:06.582Z,0.82
2022-10-02T06:06:52.348Z,1.10
2022-10-02T06:09:35.213Z,1.13
2022-10-02T06:12:15.399Z,1.20
2022-10-02T06:14:51.244Z,1.60
2022-10-02T06:17:33.675Z,1.50
2022-10-02T06:20:33.153Z,1.20
2022-10-02T06:23:41.543Z,1.02
2022-10-02T06:26:44.405Z,1.10
2022-10-02T06:29:33.713Z,1.38
2022-10-02T06:32:43.041Z,0.90
2022-10-02T06:35:19.035Z,1.30
2022-10-02T06:37:55.638Z,1.15
2022-10-02T06:40:47.524Z,1.40
2022-10-02T06:43:42.319Z,1.63
2022-10-02T06:46:37.606Z,1.38
2022-10-02T06:49:42.092Z,1.23
2022-10-02T06:52:44.284Z,1.25
2022-10-02T06:55:48.983Z,1.08
2022-10-02T06:58:27.312Z,1.20
2022-10-02T07:01:06.731Z,1.25
2022-10-02T07:04:36.751Z,1.27
2022-10-02T07:07:20.884Z,0.90
2022-10-02T07:10:09.934Z,1.10
2022-10-02T07:13:05.965Z,1.10
2022-10-02T07:16:32.324Z,1.10
2022-10-02T07:19:36.931Z,1.15
2022-10-02T07:22:45.168Z,1.00
2022-10-02T07:26:09.979Z,1.15
2022-10-02T07:29:19.712Z,1.58
2022-10-02T07:31:55.803Z,1.63
2022-10-02T07:34:53.118Z,1.15
2022-10-02T07:37:58.753Z,1.08
2022-10-02T07:41:01.438Z,1.40
2022-10-02T07:44:36.786Z,1.08
2022-10-02T07:47:22.209Z,1.30
2022-10-02T07:50:12.615Z,1.42
2022-10-02T07:53:01.440Z,1.30
2022-10-02T07:55:32.658Z,1.02
2022-10-02T07:57:59.868Z,1.70
2022-10-02T08:00:32.435Z,1.30
2022-10-02T08:03:14.541Z,1.27
2022-10-02T08:05:54.835Z,1.35
2022-10-02T08:08:49.179Z,1.70
2022-10-02T08:18:33.792Z,2.00
2022-10-02T08:21:10.608Z,1.70
2022-10-02T08:23:58.756Z,2.13
2022-10-02T08:26:43.170Z,2.22
2022-10-02T08:29:25.260Z,2.35
2022-10-02T08:31:53.496Z,3.20
2022-10-02T08:34:23.500Z,3.45
2022-10-02T08:37:14.914Z,1.90
2022-10-02T08:39:46.802Z,2.88
2022-10-02T08:42:38.505Z,3.58
2022-10-02T08:45:27.084Z,2.25
2022-10-02T08:48:06.517Z,2.33
2022-10-02T08:50:45.324Z,2.40
2022-10-02T08:53:33.679Z,1.80
2022-10-02T08:56:38.776Z,2.90
2022-10-02T08:59:53.540Z,3.10
2022-10-02T09:02:42.458Z,2.03
2022-10-02T09:05:52.942Z,1.97
2022-10-02T09:08:59.325Z,2.23
2022-10-02T09:12:04.186Z,2.10
2022-10-02T09:15:02.616Z,1.70
2022-10-02T09:18:04.311Z,2.00
2022-10-02T09:20:52.408Z,2.03
2022-10-02T09:23:21.064Z,1.40
2022-10-02T09:26:21.694Z,1.47
2022-10-02T09:29:07.027Z,1.43
2022-10-02T09:31:58.777Z,1.57
2022-10-02T09:34:40.210Z,1.67
2022-10-02T09:37:25.114Z,1.10
2022-10-02T09:40:14.339Z,1.50
2022-10-02T09:43:05.828Z,1.80
2022-10-02T09:46:31.548Z,2.27
2022-10-02T09:49:36.190Z,1.37
2022-10-02T09:52:46.468Z,1.33
2022-10-02T09:55:51.646Z,1.53
2022-10-02T09:58:52.560Z,1.10
2022-10-02T10:01:55.542Z,1.40
2022-10-02T10:04:38.008Z,1.13
2022-10-02T10:07:48.097Z,1.40
2022-10-02T10:10:42.993Z,1.60
2022-10-02T10:13:40.588Z,1.20
2022-10-02T10:16:30.642Z,1.47
2022-10-02T10:19:20.196Z,1.60
2022-10-02T10:22:26.990Z,1.50
2022-10-02T10:25:23.851Z,1.23
2022-10-02T10:28:08.534Z,1.30
2022-10-02T10:31:13.681Z,1.40
2022-10-02T10:34:03.326Z,1.27
2022-10-02T10:37:13.773Z,2.13
2022-10-02T10:39:56.426Z,1.17
2022-10-02T10:43:07.795Z,1.40
2022-10-02T10:45:58.791Z,1.43
2022-10-02T10:49:03.764Z,1.10
2022-10-02T10:51:36.738Z,1.93
2022-10-02T10:54:28.898Z,1.50
2022-10-02T10:57:27.143Z,1.60
2022-10-02T10:59:57.025Z,1.67
2022-10-02T11:02:49.001Z,1.23
2022-10-02T11:05:47.622Z,1.30
2022-10-02T11:08:57.102Z,1.40
2022-10-02T11:11:50.990Z,1.60
2022-10-02T11:14:31.385Z,2.00
2022-10-02T11:17:13.339Z,1.47
2022-10-02T11:19:49.545Z,1.43
2022-10-02T11:22:35.109Z,1.40
2022-10-02T11:25:26.652Z,1.70
2022-10-02T11:28:28.805Z,1.47
2022-10-02T11:31:25.972Z,1.50
2022-10-02T11:34:20.632Z,1.30
2022-10-02T11:37:24.592Z,1.67
2022-10-02T11:40:14.460Z,1.17
2022-10-02T11:42:43.820Z,1.33
2022-10-02T11:45:48.299Z,1.07
2022-10-02T11:48:49.240Z,1.07
2022-10-02T11:51:34.772Z,1.13
2022-10-02T11:54:29.894Z,1.10
2022-10-02T11:57:14.545Z,1.00
2022-10-02T12:00:08.634Z,1.10
2022-10-02T12:02:58.388Z,1.20
2022-10-02T12:05:48.761Z,1.00
2022-10-02T12:08:31.754Z,0.97
2022-10-02T12:11:09.909Z,1.03
2022-10-02T12:14:11.937Z,1.20
2022-10-02T12:17:11.138Z,0.90
2022-10-02T12:20:20.647Z,1.33
2022-10-02T12:23:28.126Z,1.10
2022-10-02T12:26:27.423Z,0.80
2022-10-02T12:29:13.018Z,0.77
2022-10-02T12:31:54.292Z,0.80
2022-10-02T12:34:59.080Z,0.80
2022-10-02T12:37:43.314Z,1.00
2022-10-02T12:40:48.018Z,0.87
2022-10-02T12:43:56.838Z,0.80
2022-10-02T12:46:27.849Z,0.63
2022-10-02T12:49:31.899Z,0.77
2022-10-02T12:52:28.146Z,1.00
2022-10-02T12:55:20.520Z,0.73
2022-10-02T12:58:23.962Z,0.80
2022-10-02T13:01:32.250Z,0.50
2022-10-02T13:04:29.346Z,0.70
2022-10-02T13:07:23.446Z,0.80
2022-10-02T13:10:21.762Z,0.82
2022-10-02T13:12:59.175Z,1.17
2022-10-02T14:52:02.989Z,0.80
2022-10-02T14:57:48.336Z,0.70
2022-10-02T15:01:33.310Z,0.70
2022-10-02T16:25:58.668Z,1.10
2022-10-02T16:28:52.460Z,1.00
2022-10-02T16:31:58.143Z,0.90
2022-10-02T16:34:40.319Z,1.30
2022-10-02T16:37:29.689Z,1.05
2022-10-02T16:40:04.777Z,2.10
2022-10-02T16:43:21.549Z,2.15
2022-10-02T16:46:14.205Z,1.60
2022-10-02T16:48:50.958Z,1.40
2022-10-02T16:51:56.964Z,1.50
2022-10-02T16:54:30.226Z,1.15
2022-10-02T16:57:15.200Z,1.15
2022-10-02T16:59:52.184Z,1.20
2022-10-02T17:42:41.937Z,0.95
2022-10-02T17:45:10.508Z,0.73
2022-10-02T17:47:58.463Z,0.88
2022-10-02T17:50:29.057Z,0.90
2022-10-02T17:53:50.817Z,0.80
2022-10-02T17:56:43.531Z,1.10
2022-10-02T17:59:35.869Z,0.98
2022-10-02T18:02:06.797Z,1.08
2022-10-02T19:19:42.923Z,0.80
2022-10-02T19:22:30.496Z,1.10
2022-10-02T19:25:43.091Z,0.93
2022-10-02T19:41:48.965Z,0.80
2022-10-02T19:45:39.083Z,0.88
2022-10-02T19:48:21.876Z,1.00
2022-10-02T19:50:58.766Z,0.90
2022-10-02T19:53:36.169Z,0.70
2022-10-02T19:56:18.308Z,0.70
2022-10-02T19:58:56.416Z,1.10
2022-10-02T20:01:38.978Z,0.63
2022-10-02T20:11:44.294Z,0.70
2022-10-02T20:17:58.657Z,0.70
2022-10-02T20:20:32.158Z,0.70
2022-10-02T20:23:39.085Z,0.85
2022-10-02T20:26:18.975Z,0.90
2022-10-02T20:28:56.120Z,1.02
2022-10-02T20:31:53.216Z,1.00
2022-10-02T20:34:47.129Z,0.80
2022-10-02T20:37:25.723Z,0.60
2022-10-02T20:40:19.895Z,0.80
2022-10-02T20:44:01.455Z,0.80
2022-10-02T20:46:45.937Z,0.70
2022-10-02T20:49:56.087Z,0.80
2022-10-02T20:53:06.027Z,0.90
2022-10-02T20:59:54.220Z,0.70
2022-10-02T21:06:40.931Z,0.80
2022-10-02T22:48:16.729Z,1.00
2022-10-02T22:51:03.572Z,1.00
2022-10-02T22:53:40.818Z,2.45
2022-10-02T22:56:43.611Z,0.93
2022-10-02T23:02:15.373Z,1.00
2022-10-02T23:04:57.463Z,1.60
2022-10-02T23:07:47.147Z,1.10
2022-10-02T23:10:36.111Z,1.40
2022-10-02T23:13:28.473Z,1.38
2022-10-02T23:16:26.528Z,1.80
2022-10-02T23:19:12.791Z,1.25
2022-10-02T23:21:45.614Z,1.33
2022-10-02T23:24:15.488Z,1.30
2022-10-02T23:27:02.735Z,1.45
2022-10-02T23:29:54.225Z,1.33
2022-10-02T23:32:35.483Z,1.35
2022-10-02T23:35:14.258Z,1.50
2022-10-02T23:38:02.955Z,1.73
2022-10-02T23:41:18.415Z,1.50
2022-10-02T23:44:17.567Z,1.73
2022-10-02T23:47:22.388Z,1.38
2022-10-02T23:49:54.896Z,1.20
2022-10-02T23:52:43.977Z,1.40
2022-10-02T23:55:35.997Z,1.42
2022-10-02T23:58:36.962Z,1.10
